sensor_id;sensor_type;location;lat;lon;timestamp;pressure;altitude;pressure_sealevel;temperature;humidity
60371;BME280;48550;40.588;49.684;2023-07-13T00:01:50;101776.19;;;23.22;100.00
60371;BME280;48550;40.588;49.684;2023-07-13T00:04:22;101763.75;;;23.30;100.00
60371;BME280;48550;40.588;49.684;2023-07-13T00:06:51;101771.69;;;23.31;100.00
60371;BME280;48550;40.588;49.684;2023-07-13T00:09:18;101766.56;;;23.25;100.00
60371;BME280;48550;40.588;49.684;2023-07-13T00:11:44;101763.06;;;23.19;100.00
60371;BME280;48550;40.588;49.684;2023-07-13T00:14:13;101766.91;;;23.18;100.00
60371;BME280;48550;40.588;49.684;2023-07-13T00:16:40;101771.28;;;23.19;100.00
60371;BME280;48550;40.588;49.684;2023-07-13T00:19:09;101764.47;;;23.17;100.00
60371;BME280;48550;40.588;49.684;2023-07-13T00:21:36;101766.16;;;23.12;100.00
60371;BME280;48550;40.588;49.684;2023-07-13T00:24:01;101769.47;;;23.09;100.00
60371;BME280;48550;40.588;49.684;2023-07-13T00:26:28;101768.72;;;23.04;100.00
60371;BME280;48550;40.588;49.684;2023-07-13T00:28:54;101766.22;;;23.07;100.00
60371;BME280;48550;40.588;49.684;2023-07-13T00:31:20;101764.53;;;23.11;100.00
60371;BME280;48550;40.588;49.684;2023-07-13T00:33:45;101752.19;;;23.14;100.00
60371;BME280;48550;40.588;49.684;2023-07-13T00:36:12;101764.47;;;23.17;100.00
60371;BME280;48550;40.588;49.684;2023-07-13T00:38:38;101761.97;;;23.20;100.00
60371;BME280;48550;40.588;49.684;2023-07-13T00:41:04;101767.28;;;23.11;100.00
60371;BME280;48550;40.588;49.684;2023-07-13T00:43:30;101771.19;;;23.05;100.00
60371;BME280;48550;40.588;49.684;2023-07-13T00:48:28;101774.97;;;23.09;100.00
60371;BME280;48550;40.588;49.684;2023-07-13T00:50:57;101775.56;;;23.01;100.00
60371;BME280;48550;40.588;49.684;2023-07-13T00:53:25;101775.56;;;23.01;100.00
60371;BME280;48550;40.588;49.684;2023-07-13T00:55:53;101783.56;;;22.98;100.00
60371;BME280;48550;40.588;49.684;2023-07-13T00:58:20;101777.84;;;22.94;100.00
60371;BME280;48550;40.588;49.684;2023-07-13T01:00:47;101778.59;;;23.00;100.00
60371;BME280;48550;40.588;49.684;2023-07-13T01:03:14;101779.63;;;23.09;100.00
60371;BME280;48550;40.588;49.684;2023-07-13T01:05:41;101784.56;;;23.07;100.00
60371;BME280;48550;40.588;49.684;2023-07-13T01:08:08;101778.50;;;23.10;100.00
60371;BME280;48550;40.588;49.684;2023-07-13T01:10:34;101782.59;;;23.12;100.00
60371;BME280;48550;40.588;49.684;2023-07-13T01:13:08;101783.66;;;23.17;100.00
60371;BME280;48550;40.588;49.684;2023-07-13T01:18:56;101790.81;;;23.12;100.00
60371;BME280;48550;40.588;49.684;2023-07-13T01:21:24;101793.78;;;23.16;100.00
60371;BME280;48550;40.588;49.684;2023-07-13T01:23:51;101797.03;;;23.18;100.00
60371;BME280;48550;40.588;49.684;2023-07-13T01:26:17;101795.88;;;23.24;100.00
60371;BME280;48550;40.588;49.684;2023-07-13T01:28:43;101800.59;;;23.19;100.00
60371;BME280;48550;40.588;49.684;2023-07-13T01:31:09;101795.69;;;23.16;100.00
60371;BME280;48550;40.588;49.684;2023-07-13T01:33:39;101799.56;;;23.14;100.00
60371;BME280;48550;40.588;49.684;2023-07-13T01:36:10;101796.16;;;23.23;100.00
60371;BME280;48550;40.588;49.684;2023-07-13T01:38:36;101795.69;;;23.16;100.00
60371;BME280;48550;40.588;49.684;2023-07-13T01:41:03;101798.50;;;23.34;100.00
60371;BME280;48550;40.588;49.684;2023-07-13T01:43:29;101791.63;;;23.37;100.00
60371;BME280;48550;40.588;49.684;2023-07-13T01:45:55;101801.47;;;23.38;100.00
60371;BME280;48550;40.588;49.684;2023-07-13T01:48:21;101795.47;;;23.36;100.00
60371;BME280;48550;40.588;49.684;2023-07-13T01:50:47;101792.06;;;23.44;100.00
60371;BME280;48550;40.588;49.684;2023-07-13T01:53:13;101799.91;;;23.56;100.00
60371;BME280;48550;40.588;49.684;2023-07-13T01:55:39;101797.63;;;23.63;100.00
60371;BME280;48550;40.588;49.684;2023-07-13T01:58:05;101797.56;;;23.68;100.00
60371;BME280;48550;40.588;49.684;2023-07-13T02:00:32;101800.41;;;23.82;100.00
60371;BME280;48550;40.588;49.684;2023-07-13T02:02:58;101805.09;;;24.00;100.00
60371;BME280;48550;40.588;49.684;2023-07-13T02:05:23;101806.63;;;24.06;100.00
60371;BME280;48550;40.588;49.684;2023-07-13T02:07:49;101810.41;;;24.10;100.00
60371;BME280;48550;40.588;49.684;2023-07-13T02:10:15;101810.94;;;24.12;100.00
60371;BME280;48550;40.588;49.684;2023-07-13T02:12:42;101811.75;;;24.31;100.00
60371;BME280;48550;40.588;49.684;2023-07-13T02:15:08;101812.34;;;24.28;100.00
60371;BME280;48550;40.588;49.684;2023-07-13T02:17:35;101812.41;;;24.42;100.00
60371;BME280;48550;40.588;49.684;2023-07-13T02:20:02;101814.97;;;24.71;100.00
60371;BME280;48550;40.588;49.684;2023-07-13T02:22:28;101817.84;;;24.80;100.00
60371;BME280;48550;40.588;49.684;2023-07-13T02:24:54;101819.69;;;24.84;100.00
60371;BME280;48550;40.588;49.684;2023-07-13T02:27:20;101823.75;;;24.87;100.00
60371;BME280;48550;40.588;49.684;2023-07-13T02:29:45;101822.34;;;24.89;100.00
60371;BME280;48550;40.588;49.684;2023-07-13T02:32:11;101827.06;;;25.02;100.00
60371;BME280;48550;40.588;49.684;2023-07-13T02:34:37;101826.66;;;25.09;100.00
60371;BME280;48550;40.588;49.684;2023-07-13T02:37:03;101823.59;;;25.11;100.00
60371;BME280;48550;40.588;49.684;2023-07-13T02:39:29;101825.97;;;25.17;100.00
60371;BME280;48550;40.588;49.684;2023-07-13T02:41:54;101833.63;;;25.48;100.00
60371;BME280;48550;40.588;49.684;2023-07-13T02:44:20;101838.28;;;25.20;100.00
60371;BME280;48550;40.588;49.684;2023-07-13T02:46:46;101837.28;;;25.43;100.00
60371;BME280;48550;40.588;49.684;2023-07-13T02:49:11;101836.88;;;25.50;100.00
60371;BME280;48550;40.588;49.684;2023-07-13T02:51:37;101834.84;;;25.28;100.00
60371;BME280;48550;40.588;49.684;2023-07-13T02:54:04;101841.66;;;25.44;100.00
60371;BME280;48550;40.588;49.684;2023-07-13T02:56:31;101840.94;;;25.52;100.00
60371;BME280;48550;40.588;49.684;2023-07-13T02:58:58;101840.03;;;25.43;100.00
60371;BME280;48550;40.588;49.684;2023-07-13T03:01:24;101853.16;;;25.60;100.00
60371;BME280;48550;40.588;49.684;2023-07-13T03:03:50;101851.66;;;25.68;100.00
60371;BME280;48550;40.588;49.684;2023-07-13T03:06:17;101857.25;;;25.76;100.00
60371;BME280;48550;40.588;49.684;2023-07-13T03:08:44;101864.06;;;25.79;100.00
60371;BME280;48550;40.588;49.684;2023-07-13T03:11:12;101858.44;;;26.11;100.00
60371;BME280;48550;40.588;49.684;2023-07-13T03:13:39;101857.47;;;25.66;100.00
60371;BME280;48550;40.588;49.684;2023-07-13T03:16:06;101861.84;;;25.67;100.00
60371;BME280;48550;40.588;49.684;2023-07-13T03:18:32;101868.16;;;25.81;100.00
60371;BME280;48550;40.588;49.684;2023-07-13T03:20:58;101874.63;;;25.99;100.00
60371;BME280;48550;40.588;49.684;2023-07-13T03:23:24;101874.63;;;26.13;100.00
60371;BME280;48550;40.588;49.684;2023-07-13T03:26:10;101879.38;;;26.35;100.00
60371;BME280;48550;40.588;49.684;2023-07-13T03:28:36;101882.47;;;26.19;100.00
60371;BME280;48550;40.588;49.684;2023-07-13T03:31:08;101889.34;;;26.31;100.00
60371;BME280;48550;40.588;49.684;2023-07-13T03:33:35;101893.28;;;25.88;100.00
60371;BME280;48550;40.588;49.684;2023-07-13T03:36:02;101897.56;;;25.94;100.00
60371;BME280;48550;40.588;49.684;2023-07-13T03:38:28;101897.47;;;25.86;100.00
60371;BME280;48550;40.588;49.684;2023-07-13T03:40:54;101895.72;;;26.53;100.00
60371;BME280;48550;40.588;49.684;2023-07-13T03:43:20;101896.59;;;26.76;100.00
60371;BME280;48550;40.588;49.684;2023-07-13T03:45:46;101900.38;;;27.42;100.00
60371;BME280;48550;40.588;49.684;2023-07-13T03:48:12;101904.13;;;28.43;100.00
60371;BME280;48550;40.588;49.684;2023-07-13T03:50:37;101916.53;;;28.06;100.00
60371;BME280;48550;40.588;49.684;2023-07-13T03:53:03;101914.56;;;28.06;100.00
60371;BME280;48550;40.588;49.684;2023-07-13T03:55:29;101910.81;;;27.94;100.00
60371;BME280;48550;40.588;49.684;2023-07-13T03:58:01;101916.34;;;28.02;100.00
60371;BME280;48550;40.588;49.684;2023-07-13T04:00:27;101918.03;;;27.64;100.00
60371;BME280;48550;40.588;49.684;2023-07-13T04:02:52;101913.84;;;28.32;100.00
60371;BME280;48550;40.588;49.684;2023-07-13T04:05:18;101921.34;;;29.56;80.82
60371;BME280;48550;40.588;49.684;2023-07-13T04:07:45;101924.66;;;28.20;98.96
60371;BME280;48550;40.588;49.684;2023-07-13T04:10:11;101935.06;;;29.35;85.39
60371;BME280;48550;40.588;49.684;2023-07-13T04:12:37;101937.22;;;30.77;69.14
60371;BME280;48550;40.588;49.684;2023-07-13T04:15:03;101944.25;;;31.28;64.80
60371;BME280;48550;40.588;49.684;2023-07-13T04:17:28;101942.31;;;31.65;61.69
60371;BME280;48550;40.588;49.684;2023-07-13T04:19:54;101953.94;;;32.04;59.96
60371;BME280;48550;40.588;49.684;2023-07-13T04:22:20;101951.63;;;32.58;56.56
60371;BME280;48550;40.588;49.684;2023-07-13T04:24:45;101951.84;;;32.77;56.12
60371;BME280;48550;40.588;49.684;2023-07-13T04:27:11;101957.50;;;32.04;58.53
60371;BME280;48550;40.588;49.684;2023-07-13T04:29:37;101956.00;;;32.07;58.29
60371;BME280;48550;40.588;49.684;2023-07-13T04:32:03;101947.66;;;32.07;57.20
60371;BME280;48550;40.588;49.684;2023-07-13T04:34:29;101958.00;;;31.37;58.83
60371;BME280;48550;40.588;49.684;2023-07-13T04:36:55;101962.25;;;32.28;58.66
60371;BME280;48550;40.588;49.684;2023-07-13T04:39:20;101956.44;;;32.33;57.09
60371;BME280;48550;40.588;49.684;2023-07-13T04:41:46;101956.03;;;31.04;60.85
60371;BME280;48550;40.588;49.684;2023-07-13T04:44:12;101954.25;;;31.78;58.85
60371;BME280;48550;40.588;49.684;2023-07-13T04:46:37;101959.97;;;31.36;56.28
60371;BME280;48550;40.588;49.684;2023-07-13T04:49:03;101958.06;;;30.62;64.74
60371;BME280;48550;40.588;49.684;2023-07-13T04:51:29;101958.09;;;30.53;63.00
60371;BME280;48550;40.588;49.684;2023-07-13T04:53:55;101961.13;;;31.14;62.63
60371;BME280;48550;40.588;49.684;2023-07-13T04:56:20;101964.25;;;31.34;61.14
60371;BME280;48550;40.588;49.684;2023-07-13T04:58:46;101964.34;;;31.25;60.31
60371;BME280;48550;40.588;49.684;2023-07-13T05:01:12;101964.66;;;31.93;58.94
60371;BME280;48550;40.588;49.684;2023-07-13T05:03:39;101961.06;;;31.68;58.46
60371;BME280;48550;40.588;49.684;2023-07-13T05:06:07;101963.59;;;30.12;68.54
60371;BME280;48550;40.588;49.684;2023-07-13T05:08:35;101956.84;;;29.45;73.21
60371;BME280;48550;40.588;49.684;2023-07-13T05:11:02;101947.63;;;28.80;80.91
60371;BME280;48550;40.588;49.684;2023-07-13T05:13:28;101951.38;;;28.33;88.65
60371;BME280;48550;40.588;49.684;2023-07-13T05:16:02;101947.13;;;27.78;97.50
60371;BME280;48550;40.588;49.684;2023-07-13T05:18:29;101947.19;;;28.04;91.96
60371;BME280;48550;40.588;49.684;2023-07-13T05:21:08;101954.97;;;28.85;82.82
60371;BME280;48550;40.588;49.684;2023-07-13T05:23:36;101965.00;;;27.81;99.16
60371;BME280;48550;40.588;49.684;2023-07-13T05:26:03;101959.47;;;27.50;100.00
60371;BME280;48550;40.588;49.684;2023-07-13T05:28:30;101967.69;;;27.64;100.00
60371;BME280;48550;40.588;49.684;2023-07-13T05:30:56;101957.72;;;27.94;97.80
60371;BME280;48550;40.588;49.684;2023-07-13T05:33:23;101961.28;;;28.51;91.39
60371;BME280;48550;40.588;49.684;2023-07-13T05:35:48;101968.00;;;29.02;82.47
60371;BME280;48550;40.588;49.684;2023-07-13T05:38:14;101971.81;;;29.44;78.09
60371;BME280;48550;40.588;49.684;2023-07-13T05:40:43;101975.84;;;30.31;69.26
60371;BME280;48550;40.588;49.684;2023-07-13T05:43:09;101971.72;;;29.70;71.39
60371;BME280;48550;40.588;49.684;2023-07-13T05:45:34;101971.00;;;30.49;68.74
60371;BME280;48550;40.588;49.684;2023-07-13T05:48:00;101974.16;;;29.80;73.45
60371;BME280;48550;40.588;49.684;2023-07-13T05:50:26;101971.09;;;30.11;70.58
60371;BME280;48550;40.588;49.684;2023-07-13T05:52:52;101970.91;;;30.66;66.00
60371;BME280;48550;40.588;49.684;2023-07-13T05:55:18;101967.03;;;30.09;69.33
60371;BME280;48550;40.588;49.684;2023-07-13T05:57:44;101970.34;;;29.93;68.74
60371;BME280;48550;40.588;49.684;2023-07-13T06:00:10;101977.13;;;31.17;62.39
60371;BME280;48550;40.588;49.684;2023-07-13T06:02:36;101971.56;;;31.17;62.79
60371;BME280;48550;40.588;49.684;2023-07-13T06:05:02;101969.72;;;30.88;63.77
60371;BME280;48550;40.588;49.684;2023-07-13T06:07:27;101971.97;;;31.98;59.11
60371;BME280;48550;40.588;49.684;2023-07-13T06:09:53;101974.22;;;31.47;60.25
60371;BME280;48550;40.588;49.684;2023-07-13T06:12:19;101971.91;;;30.83;63.06
60371;BME280;48550;40.588;49.684;2023-07-13T06:14:44;101967.13;;;31.25;62.17
60371;BME280;48550;40.588;49.684;2023-07-13T06:17:10;101968.59;;;30.69;64.70
60371;BME280;48550;40.588;49.684;2023-07-13T06:19:36;101972.22;;;31.35;60.76
60371;BME280;48550;40.588;49.684;2023-07-13T06:22:01;101971.03;;;31.81;58.85
60371;BME280;48550;40.588;49.684;2023-07-13T06:24:27;101973.94;;;31.27;61.81
60371;BME280;48550;40.588;49.684;2023-07-13T06:26:53;101974.66;;;30.83;64.04
60371;BME280;48550;40.588;49.684;2023-07-13T06:29:18;101971.72;;;30.67;65.29
60371;BME280;48550;40.588;49.684;2023-07-13T06:31:44;101982.38;;;31.10;62.64
60371;BME280;48550;40.588;49.684;2023-07-13T06:34:10;101971.16;;;30.74;63.16
60371;BME280;48550;40.588;49.684;2023-07-13T06:36:35;101977.97;;;30.55;66.35
60371;BME280;48550;40.588;49.684;2023-07-13T06:39:02;101975.09;;;30.73;64.83
60371;BME280;48550;40.588;49.684;2023-07-13T06:41:28;101979.53;;;30.86;65.25
60371;BME280;48550;40.588;49.684;2023-07-13T06:43:53;101963.63;;;31.73;59.37
60371;BME280;48550;40.588;49.684;2023-07-13T06:46:23;101974.75;;;31.07;62.29
60371;BME280;48550;40.588;49.684;2023-07-13T06:48:49;101962.09;;;31.51;61.90
60371;BME280;48550;40.588;49.684;2023-07-13T06:51:15;101960.75;;;30.71;63.83
60371;BME280;48550;40.588;49.684;2023-07-13T06:53:41;101962.16;;;30.77;63.29
60371;BME280;48550;40.588;49.684;2023-07-13T06:56:09;101961.91;;;31.23;64.83
60371;BME280;48550;40.588;49.684;2023-07-13T06:58:36;101974.13;;;30.48;63.66
60371;BME280;48550;40.588;49.684;2023-07-13T07:01:03;101960.88;;;30.53;65.78
60371;BME280;48550;40.588;49.684;2023-07-13T07:03:28;101955.81;;;30.76;63.47
60371;BME280;48550;40.588;49.684;2023-07-13T07:06:00;101955.75;;;31.75;58.01
60371;BME280;48550;40.588;49.684;2023-07-13T07:08:25;101953.84;;;31.31;59.67
60371;BME280;48550;40.588;49.684;2023-07-13T07:10:51;101960.41;;;31.05;60.85
60371;BME280;48550;40.588;49.684;2023-07-13T07:13:19;101957.22;;;30.82;62.84
60371;BME280;48550;40.588;49.684;2023-07-13T07:15:45;101958.94;;;31.08;62.01
60371;BME280;48550;40.588;49.684;2023-07-13T07:18:11;101964.72;;;30.82;60.13
60371;BME280;48550;40.588;49.684;2023-07-13T07:20:36;101960.09;;;31.07;61.47
60371;BME280;48550;40.588;49.684;2023-07-13T07:23:03;101960.47;;;31.63;57.96
60371;BME280;48550;40.588;49.684;2023-07-13T07:25:28;101962.91;;;31.19;61.07
60371;BME280;48550;40.588;49.684;2023-07-13T07:27:57;101961.44;;;30.67;59.70
60371;BME280;48550;40.588;49.684;2023-07-13T07:30:24;101966.28;;;30.20;60.05
60371;BME280;48550;40.588;49.684;2023-07-13T07:32:49;101958.22;;;30.36;64.25
60371;BME280;48550;40.588;49.684;2023-07-13T07:35:15;101945.38;;;29.64;66.18
60371;BME280;48550;40.588;49.684;2023-07-13T07:37:41;101948.72;;;29.40;66.15
60371;BME280;48550;40.588;49.684;2023-07-13T07:40:07;101939.41;;;29.53;65.77
60371;BME280;48550;40.588;49.684;2023-07-13T07:42:33;101939.28;;;29.32;70.01
60371;BME280;48550;40.588;49.684;2023-07-13T07:44:59;101950.59;;;28.93;71.09
60371;BME280;48550;40.588;49.684;2023-07-13T07:47:26;101947.63;;;29.24;70.86
60371;BME280;48550;40.588;49.684;2023-07-13T07:49:52;101950.38;;;29.24;68.07
60371;BME280;48550;40.588;49.684;2023-07-13T07:52:18;101949.41;;;29.28;66.40
60371;BME280;48550;40.588;49.684;2023-07-13T07:54:44;101950.91;;;28.65;73.10
60371;BME280;48550;40.588;49.684;2023-07-13T07:57:10;101941.06;;;28.16;69.53
60371;BME280;48550;40.588;49.684;2023-07-13T07:59:37;101932.97;;;27.63;84.34
60371;BME280;48550;40.588;49.684;2023-07-13T08:02:04;101935.38;;;27.33;86.77
60371;BME280;48550;40.588;49.684;2023-07-13T08:04:29;101925.00;;;27.08;83.13
60371;BME280;48550;40.588;49.684;2023-07-13T08:06:55;101936.38;;;26.92;94.41
60371;BME280;48550;40.588;49.684;2023-07-13T08:09:24;101931.34;;;27.39;86.01
60371;BME280;48550;40.588;49.684;2023-07-13T08:11:49;101926.44;;;27.05;85.30
60371;BME280;48550;40.588;49.684;2023-07-13T08:14:16;101926.38;;;27.19;87.36
60371;BME280;48550;40.588;49.684;2023-07-13T08:16:42;101924.84;;;27.35;85.15
60371;BME280;48550;40.588;49.684;2023-07-13T08:19:07;101927.59;;;27.35;78.87
60371;BME280;48550;40.588;49.684;2023-07-13T08:21:33;101919.59;;;27.25;90.84
60371;BME280;48550;40.588;49.684;2023-07-13T08:23:59;101917.34;;;27.27;82.61
60371;BME280;48550;40.588;49.684;2023-07-13T08:26:24;101928.91;;;27.38;79.76
60371;BME280;48550;40.588;49.684;2023-07-13T08:28:50;101918.81;;;27.33;80.53
60371;BME280;48550;40.588;49.684;2023-07-13T08:31:16;101921.16;;;27.48;87.49
60371;BME280;48550;40.588;49.684;2023-07-13T08:33:41;101912.41;;;27.15;94.30
60371;BME280;48550;40.588;49.684;2023-07-13T08:36:07;101913.81;;;27.35;93.75
60371;BME280;48550;40.588;49.684;2023-07-13T08:38:33;101919.16;;;26.87;94.83
60371;BME280;48550;40.588;49.684;2023-07-13T08:40:59;101915.13;;;27.07;93.48
60371;BME280;48550;40.588;49.684;2023-07-13T08:43:30;101897.84;;;27.23;88.04
60371;BME280;48550;40.588;49.684;2023-07-13T08:46:36;101902.56;;;27.23;88.24
60371;BME280;48550;40.588;49.684;2023-07-13T08:49:11;101899.94;;;26.96;86.08
60371;BME280;48550;40.588;49.684;2023-07-13T08:52:09;101900.53;;;27.06;90.19
60371;BME280;48550;40.588;49.684;2023-07-13T08:54:41;101886.13;;;27.09;92.93
60371;BME280;48550;40.588;49.684;2023-07-13T08:57:15;101897.69;;;27.20;95.42
60371;BME280;48550;40.588;49.684;2023-07-13T08:59:43;101888.69;;;26.83;94.02
60371;BME280;48550;40.588;49.684;2023-07-13T09:05:08;101886.31;;;26.90;94.60
60371;BME280;48550;40.588;49.684;2023-07-13T09:15:52;101879.25;;;26.76;92.78
60371;BME280;48550;40.588;49.684;2023-07-13T09:18:32;101866.97;;;26.82;95.28
60371;BME280;48550;40.588;49.684;2023-07-13T09:23:34;101866.03;;;26.86;90.98
60371;BME280;48550;40.588;49.684;2023-07-13T09:28:45;101859.75;;;26.72;83.87
60371;BME280;48550;40.588;49.684;2023-07-13T09:31:15;101865.06;;;26.91;89.50
60371;BME280;48550;40.588;49.684;2023-07-13T09:33:43;101859.00;;;26.80;95.81
60371;BME280;48550;40.588;49.684;2023-07-13T09:36:24;101869.72;;;26.82;90.29
60371;BME280;48550;40.588;49.684;2023-07-13T09:44:11;101869.44;;;27.14;84.37
60371;BME280;48550;40.588;49.684;2023-07-13T09:46:38;101869.94;;;27.16;85.21
60371;BME280;48550;40.588;49.684;2023-07-13T09:49:07;101859.16;;;26.98;86.31
60371;BME280;48550;40.588;49.684;2023-07-13T09:51:33;101871.16;;;26.79;94.45
60371;BME280;48550;40.588;49.684;2023-07-13T09:53:59;101861.44;;;26.59;100.00
60371;BME280;48550;40.588;49.684;2023-07-13T09:56:29;101841.59;;;26.49;100.00
60371;BME280;48550;40.588;49.684;2023-07-13T09:58:56;101847.44;;;26.47;100.00
60371;BME280;48550;40.588;49.684;2023-07-13T10:01:36;101842.22;;;26.46;97.97
60371;BME280;48550;40.588;49.684;2023-07-13T10:04:11;101849.03;;;26.71;100.00
60371;BME280;48550;40.588;49.684;2023-07-13T10:06:40;101846.47;;;26.74;97.07
60371;BME280;48550;40.588;49.684;2023-07-13T10:09:09;101843.16;;;27.08;91.06
60371;BME280;48550;40.588;49.684;2023-07-13T10:11:36;101841.84;;;27.06;92.22
60371;BME280;48550;40.588;49.684;2023-07-13T10:14:20;101838.44;;;27.09;87.39
60371;BME280;48550;40.588;49.684;2023-07-13T10:16:51;101840.41;;;26.41;93.39
60371;BME280;48550;40.588;49.684;2023-07-13T10:21:53;101834.16;;;26.72;99.68
60371;BME280;48550;40.588;49.684;2023-07-13T10:24:32;101840.34;;;26.33;100.00
60371;BME280;48550;40.588;49.684;2023-07-13T10:27:09;101838.53;;;26.50;100.00
60371;BME280;48550;40.588;49.684;2023-07-13T10:29:43;101833.84;;;26.51;100.00
60371;BME280;48550;40.588;49.684;2023-07-13T10:32:14;101839.28;;;26.65;94.70
60371;BME280;48550;40.588;49.684;2023-07-13T10:34:44;101842.88;;;26.29;98.82
60371;BME280;48550;40.588;49.684;2023-07-13T10:37:20;101842.03;;;26.42;99.63
60371;BME280;48550;40.588;49.684;2023-07-13T10:39:48;101835.38;;;26.21;99.29
60371;BME280;48550;40.588;49.684;2023-07-13T10:42:28;101826.22;;;26.12;100.00
60371;BME280;48550;40.588;49.684;2023-07-13T10:44:54;101827.78;;;26.04;100.00
60371;BME280;48550;40.588;49.684;2023-07-13T10:47:20;101829.91;;;25.93;100.00
60371;BME280;48550;40.588;49.684;2023-07-13T10:49:56;101836.41;;;26.11;100.00
60371;BME280;48550;40.588;49.684;2023-07-13T10:52:52;101817.91;;;26.25;100.00
60371;BME280;48550;40.588;49.684;2023-07-13T10:58:41;101827.81;;;26.26;100.00
60371;BME280;48550;40.588;49.684;2023-07-13T11:01:17;101816.78;;;25.90;100.00
60371;BME280;48550;40.588;49.684;2023-07-13T11:06:17;101819.53;;;26.04;100.00
60371;BME280;48550;40.588;49.684;2023-07-13T11:08:58;101819.94;;;25.97;100.00
60371;BME280;48550;40.588;49.684;2023-07-13T11:13:57;101818.50;;;26.00;100.00
60371;BME280;48550;40.588;49.684;2023-07-13T11:18:51;101814.53;;;26.28;100.00
60371;BME280;48550;40.588;49.684;2023-07-13T11:21:23;101809.66;;;26.25;100.00
60371;BME280;48550;40.588;49.684;2023-07-13T11:24:00;101803.44;;;26.34;100.00
60371;BME280;48550;40.588;49.684;2023-07-13T11:31:51;101800.78;;;26.06;100.00
60371;BME280;48550;40.588;49.684;2023-07-13T11:34:23;101799.19;;;25.78;100.00
60371;BME280;48550;40.588;49.684;2023-07-13T11:36:50;101800.78;;;26.06;100.00
60371;BME280;48550;40.588;49.684;2023-07-13T11:39:19;101799.16;;;26.05;100.00
60371;BME280;48550;40.588;49.684;2023-07-13T11:42:05;101797.81;;;26.03;100.00
60371;BME280;48550;40.588;49.684;2023-07-13T11:44:33;101798.22;;;26.10;100.00
60371;BME280;48550;40.588;49.684;2023-07-13T11:47:08;101795.34;;;26.15;100.00
60371;BME280;48550;40.588;49.684;2023-07-13T11:49:45;101786.69;;;26.44;100.00
60371;BME280;48550;40.588;49.684;2023-07-13T11:52:17;101776.66;;;26.25;100.00
60371;BME280;48550;40.588;49.684;2023-07-13T11:54:49;101769.13;;;26.17;100.00
60371;BME280;48550;40.588;49.684;2023-07-13T11:57:44;101784.56;;;26.05;100.00
60371;BME280;48550;40.588;49.684;2023-07-13T12:00:14;101766.19;;;26.14;100.00
60371;BME280;48550;40.588;49.684;2023-07-13T12:02:47;101772.94;;;26.08;100.00
60371;BME280;48550;40.588;49.684;2023-07-13T12:05:16;101774.09;;;25.93;100.00
60371;BME280;48550;40.588;49.684;2023-07-13T12:07:43;101777.97;;;25.92;100.00
60371;BME280;48550;40.588;49.684;2023-07-13T12:12:36;101775.16;;;25.83;100.00
60371;BME280;48550;40.588;49.684;2023-07-13T12:15:10;101757.91;;;25.91;100.00
60371;BME280;48550;40.588;49.684;2023-07-13T12:17:36;101760.38;;;25.79;100.00
60371;BME280;48550;40.588;49.684;2023-07-13T12:20:11;101767.13;;;26.09;100.00
60371;BME280;48550;40.588;49.684;2023-07-13T12:22:46;101758.19;;;26.04;100.00
60371;BME280;48550;40.588;49.684;2023-07-13T12:25:12;101764.88;;;26.11;100.00
60371;BME280;48550;40.588;49.684;2023-07-13T12:27:39;101755.13;;;26.05;100.00
60371;BME280;48550;40.588;49.684;2023-07-13T12:33:11;101762.56;;;26.27;100.00
60371;BME280;48550;40.588;49.684;2023-07-13T12:35:49;101764.59;;;25.99;100.00
60371;BME280;48550;40.588;49.684;2023-07-13T12:38:18;101760.69;;;25.78;100.00
60371;BME280;48550;40.588;49.684;2023-07-13T12:40:49;101761.97;;;25.94;100.00
60371;BME280;48550;40.588;49.684;2023-07-13T12:43:16;101759.31;;;26.03;100.00
60371;BME280;48550;40.588;49.684;2023-07-13T12:48:23;101766.16;;;25.91;100.00
60371;BME280;48550;40.588;49.684;2023-07-13T12:50:49;101765.16;;;25.87;100.00
60371;BME280;48550;40.588;49.684;2023-07-13T12:53:19;101768.25;;;26.08;100.00
60371;BME280;48550;40.588;49.684;2023-07-13T12:55:52;101768.97;;;26.00;100.00
60371;BME280;48550;40.588;49.684;2023-07-13T12:58:26;101767.16;;;25.95;100.00
60371;BME280;48550;40.588;49.684;2023-07-13T13:00:54;101772.00;;;26.12;100.00
60371;BME280;48550;40.588;49.684;2023-07-13T13:03:33;101768.38;;;26.03;100.00
60371;BME280;48550;40.588;49.684;2023-07-13T13:06:05;101773.44;;;26.10;100.00
60371;BME280;48550;40.588;49.684;2023-07-13T13:08:35;101772.53;;;26.01;100.00
60371;BME280;48550;40.588;49.684;2023-07-13T13:11:02;101764.41;;;25.95;100.00
60371;BME280;48550;40.588;49.684;2023-07-13T13:13:27;101769.38;;;26.07;100.00
60371;BME280;48550;40.588;49.684;2023-07-13T13:15:54;101776.34;;;25.91;100.00
60371;BME280;48550;40.588;49.684;2023-07-13T13:18:21;101781.66;;;25.87;100.00
60371;BME280;48550;40.588;49.684;2023-07-13T13:20:51;101774.91;;;25.93;100.00
60371;BME280;48550;40.588;49.684;2023-07-13T13:23:19;101769.44;;;25.80;100.00
60371;BME280;48550;40.588;49.684;2023-07-13T13:25:47;101777.72;;;25.66;100.00
60371;BME280;48550;40.588;49.684;2023-07-13T13:28:18;101772.00;;;25.76;100.00
60371;BME280;48550;40.588;49.684;2023-07-13T13:30:46;101775.53;;;25.90;100.00
60371;BME280;48550;40.588;49.684;2023-07-13T13:33:15;101772.28;;;25.88;100.00
60371;BME280;48550;40.588;49.684;2023-07-13T13:35:42;101781.06;;;25.77;100.00